createdAt,value
2022-10-25T00:11:02.551Z,100
2022-10-25T00:20:40.284Z,99.67
2022-10-25T00:30:17.676Z,100
2022-10-25T00:39:54.860Z,100
2022-10-25T00:49:31.759Z,100
2022-10-25T01:08:45.646Z,100
2022-10-25T01:18:22.487Z,100
2022-10-25T01:37:37.398Z,100
2022-10-25T01:47:14.361Z,100
2022-10-25T01:56:51.221Z,100
2022-10-25T02:06:29.560Z,100
2022-10-25T02:16:05.755Z,100
2022-10-25T02:25:42.780Z,100
2022-10-25T02:35:20.303Z,100
2022-10-25T02:44:57.647Z,100
2022-10-25T02:54:34.677Z,100
2022-10-25T03:04:12.109Z,100
2022-10-25T03:13:49.020Z,100
2022-10-25T03:23:26.166Z,100
2022-10-25T03:33:03.035Z,100
2022-10-25T03:42:39.912Z,100
2022-10-25T03:52:16.360Z,100
2022-10-25T04:01:53.539Z,100
2022-10-25T04:11:30.614Z,100
2022-10-25T04:21:09.129Z,100
2022-10-25T04:30:45.778Z,100
2022-10-25T04:40:22.627Z,100
2022-10-25T04:49:59.372Z,100
2022-10-25T04:59:36.928Z,100
2022-10-25T05:09:13.985Z,100
2022-10-25T05:18:51.363Z,100
2022-10-25T05:38:06.250Z,100
2022-10-25T05:47:43.036Z,100
2022-10-25T05:57:20.434Z,100
2022-10-25T06:16:34.609Z,100
2022-10-25T06:26:11.762Z,100
2022-10-25T06:35:48.573Z,100
2022-10-25T06:45:26.336Z,100
2022-10-25T06:55:03.861Z,100
2022-10-25T07:14:19.936Z,94.3
2022-10-25T07:23:58.210Z,92.25
2022-10-25T07:33:36.723Z,90.28
2022-10-25T07:43:15.769Z,87.64
2022-10-25T07:52:53.771Z,83.64
2022-10-25T08:12:11.641Z,78.72
2022-10-25T08:21:49.755Z,77.01
2022-10-25T08:31:27.164Z,77.68
2022-10-25T08:41:18.537Z,77.85
2022-10-25T09:00:40.524Z,74.83
2022-10-25T09:10:18.620Z,75.3
2022-10-25T09:19:56.799Z,73.12
2022-10-25T09:29:34.428Z,72.12
2022-10-25T09:39:15.656Z,73.16
2022-10-25T09:48:49.999Z,74.03
2022-10-25T09:58:27.083Z,72.97
2022-10-25T10:08:04.132Z,70.82
2022-10-25T10:17:42.554Z,70.43
2022-10-25T10:27:20.179Z,68.09
2022-10-25T10:37:00.589Z,68.16
2022-10-25T10:46:51.733Z,62.68
2022-10-25T10:56:39.477Z,57.54
2022-10-25T11:15:47.101Z,62.33
2022-10-25T11:25:18.740Z,63.86
2022-10-25T11:34:59.428Z,63.73
2022-10-25T11:44:33.745Z,65.22
2022-10-25T11:54:13.630Z,59.35
2022-10-25T12:13:32.264Z,58.17
2022-10-25T12:23:05.962Z,59.63
2022-10-25T12:32:42.806Z,59.44
2022-10-25T12:42:19.751Z,60.79
2022-10-25T13:01:33.625Z,62.09
2022-10-25T13:11:10.499Z,62.92
2022-10-25T13:20:46.770Z,62.75
2022-10-25T13:30:22.250Z,63.88
2022-10-25T13:40:01.637Z,65.07
2022-10-25T13:49:38.966Z,64.15
2022-10-25T13:59:17.834Z,63.5
2022-10-25T14:08:56.591Z,63.41
2022-10-25T14:18:33.496Z,64.64
2022-10-25T14:28:12.066Z,64.75
2022-10-25T14:37:45.590Z,67.31
2022-10-25T14:47:21.614Z,67.28
2022-10-25T14:57:09.721Z,63.14
2022-10-25T15:06:45.521Z,62.74
2022-10-25T15:25:54.827Z,67.49
2022-10-25T15:35:30.455Z,71.6
2022-10-25T15:45:06.400Z,75.04
2022-10-25T15:54:42.358Z,79.49
2022-10-25T16:04:18.017Z,84.24
2022-10-25T16:13:56.182Z,87.13
2022-10-25T16:23:30.672Z,89.63
2022-10-25T16:33:07.353Z,92.13
2022-10-25T16:42:43.334Z,94.61
2022-10-25T16:52:19.096Z,97.33
2022-10-25T17:01:54.782Z,100
2022-10-25T17:11:30.966Z,100
2022-10-25T17:21:07.203Z,100
2022-10-25T17:30:43.734Z,100
2022-10-25T17:40:20.670Z,100
2022-10-25T17:49:57.454Z,100
2022-10-25T17:59:34.247Z,100
2022-10-25T18:09:11.268Z,100
2022-10-25T18:18:47.985Z,100
2022-10-25T18:28:24.837Z,100
2022-10-25T18:38:01.221Z,100
2022-10-25T18:47:37.518Z,100
2022-10-25T18:57:13.687Z,100
2022-10-25T19:06:50.026Z,100
2022-10-25T19:16:26.946Z,100
2022-10-25T19:35:40.459Z,100
2022-10-25T19:45:17.175Z,100
2022-10-25T19:54:53.831Z,100
2022-10-25T20:04:30.341Z,100
2022-10-25T20:14:07.412Z,100
2022-10-25T20:23:45.111Z,100
2022-10-25T20:42:58.579Z,100
2022-10-25T20:52:39.690Z,100
2022-10-25T21:02:11.886Z,100
2022-10-25T21:11:48.787Z,100
2022-10-25T21:21:25.560Z,100
2022-10-25T21:31:02.215Z,100
2022-10-25T21:40:38.704Z,100
2022-10-25T21:50:15.671Z,100
2022-10-25T21:59:52.126Z,100
2022-10-25T22:19:05.896Z,100
2022-10-25T22:28:42.861Z,100
2022-10-25T22:38:19.255Z,100
2022-10-25T22:47:56.683Z,100
2022-10-25T22:57:33.711Z,100
2022-10-25T23:07:10.609Z,100
2022-10-25T23:16:47.108Z,100
2022-10-25T23:26:23.955Z,100
2022-10-25T23:36:00.479Z,100
2022-10-25T23:45:36.934Z,100
2022-10-25T23:55:13.300Z,100
